Time;durP1;ratioP1;P1;durP2;ratioP2;P2;SDS_P1;SDS_P2;PMS_P1;PMS_P2;Temp;Humidity;BMP_temperature;BMP_pressure;BME280_temperature;BME280_humidity;BME280_pressure;Samples;Min_cycle;Max_cycle;Signal;HPM_P1;HPM_P2
2022/11/29 00:01:09;;;;;;;129.25;35.13;;;10.30;99.90;;;;;;5038640;28;20035;-83
2022/11/29 00:03:34;;;;;;;153.48;36.50;;;10.30;99.90;;;;;;5022499;28;20385;-83
2022/11/29 00:06:09;;;;;;;156.82;36.35;;;10.30;99.90;;;;;;5022228;28;20036;-83
2022/11/29 00:08:35;;;;;;;130.52;33.65;;;10.30;99.90;;;;;;5039331;28;20021;-84
2022/11/29 00:14:01;;;;;;;157.57;35.67;;;10.20;99.90;;;;;;5056625;28;20482;-84
2022/11/29 00:16:27;;;;;;;162.00;36.30;;;10.20;99.90;;;;;;5038369;28;20025;-84
2022/11/29 00:18:52;;;;;;;161.05;35.60;;;10.20;99.90;;;;;;5038997;28;20127;-84
2022/11/29 00:21:18;;;;;;;142.75;34.58;;;10.20;99.90;;;;;;5005865;28;20025;-84
2022/11/29 00:23:43;;;;;;;168.38;35.30;;;10.20;99.90;;;;;;5038819;28;20025;-83
2022/11/29 00:26:09;;;;;;;181.88;34.13;;;10.20;99.90;;;;;;5038114;28;20068;-83
2022/11/29 00:28:36;;;;;;;156.00;34.22;;;10.20;99.90;;;;;;5021900;28;20478;-83
2022/11/29 00:31:25;;;;;;;177.65;33.15;;;10.20;99.90;;;;;;5056018;28;20386;-83
2022/11/29 00:33:51;;;;;;;155.95;33.13;;;10.20;99.90;;;;;;5038090;28;20033;-82
2022/11/29 00:36:18;;;;;;;189.57;36.95;;;10.20;99.90;;;;;;5021529;28;20029;-83
2022/11/29 00:38:44;;;;;;;139.75;33.83;;;10.20;99.90;;;;;;5055913;28;20029;-83
2022/11/29 00:41:10;;;;;;;158.63;34.58;;;10.20;99.90;;;;;;5055267;28;20174;-86
2022/11/29 00:43:36;;;;;;;176.10;37.38;;;10.20;99.90;;;;;;5022339;28;20025;-85
2022/11/29 00:46:03;;;;;;;187.48;38.33;;;10.20;99.90;;;;;;5055656;28;20478;-86
2022/11/29 00:48:29;;;;;;;175.65;37.03;;;10.20;99.90;;;;;;5038584;28;20032;-86
2022/11/29 00:50:55;;;;;;;177.95;38.53;;;10.20;99.90;;;;;;5038931;28;20103;-86
2022/11/29 00:53:21;;;;;;;185.82;38.72;;;10.20;99.90;;;;;;5022051;28;20119;-86
2022/11/29 00:55:48;;;;;;;210.18;37.90;;;10.20;99.90;;;;;;5038911;28;20094;-86
2022/11/29 00:58:13;;;;;;;204.15;37.58;;;10.20;99.90;;;;;;5038086;28;20119;-83
2022/11/29 01:00:39;;;;;;;186.02;36.55;;;10.20;99.90;;;;;;5021443;28;20538;-83
2022/11/29 01:03:04;;;;;;;172.55;37.50;;;10.20;99.90;;;;;;5054177;28;20095;-83
2022/11/29 01:05:31;;;;;;;175.18;37.50;;;10.20;99.90;;;;;;5054016;28;20032;-83
2022/11/29 01:07:57;;;;;;;198.82;37.38;;;10.20;99.90;;;;;;5021069;28;20490;-82
2022/11/29 01:10:22;;;;;;;173.00;36.58;;;10.20;99.90;;;;;;5020976;28;20039;-83
2022/11/29 01:12:48;;;;;;;205.45;37.45;;;10.20;99.90;;;;;;5055232;28;20494;-82
2022/11/29 01:15:14;;;;;;;159.98;35.97;;;10.20;99.90;;;;;;5037351;28;20442;-82
2022/11/29 01:17:40;;;;;;;142.75;32.53;;;10.20;99.90;;;;;;5020865;28;20025;-82
2022/11/29 01:20:07;;;;;;;181.52;35.58;;;10.20;99.90;;;;;;5037162;28;20049;-83
2022/11/29 01:22:34;;;;;;;162.35;35.10;;;10.20;99.90;;;;;;5053770;28;20119;-82
2022/11/29 01:24:59;;;;;;;165.45;34.85;;;10.20;99.90;;;;;;5020427;28;20114;-83
2022/11/29 01:27:25;;;;;;;166.70;35.83;;;10.20;99.90;;;;;;5054756;28;20170;-83
2022/11/29 01:29:51;;;;;;;175.80;34.97;;;10.20;99.90;;;;;;5037213;28;20033;-85
2022/11/29 01:32:16;;;;;;;160.07;32.97;;;10.20;99.90;;;;;;5037609;28;20029;-86
2022/11/29 01:34:42;;;;;;;171.32;34.55;;;10.20;99.90;;;;;;5037450;28;20037;-86
2022/11/29 01:37:08;;;;;;;191.43;34.88;;;10.20;99.90;;;;;;5037677;28;20106;-86
2022/11/29 01:39:33;;;;;;;154.38;35.50;;;10.20;99.90;;;;;;5054066;28;20041;-85
2022/11/29 01:42:01;;;;;;;155.40;34.03;;;10.20;99.90;;;;;;5020740;28;20120;-86
2022/11/29 01:44:29;;;;;;;179.77;35.08;;;10.20;99.90;;;;;;5020829;28;20417;-86
2022/11/29 01:46:56;;;;;;;187.05;36.85;;;10.20;99.90;;;;;;5053997;28;20075;-86
2022/11/29 01:49:23;;;;;;;160.55;34.20;;;10.20;99.90;;;;;;5055040;28;20017;-86
2022/11/29 01:51:54;;;;;;;181.75;34.72;;;10.20;99.90;;;;;;5053710;28;20437;-86
2022/11/29 01:54:20;;;;;;;163.52;34.22;;;10.20;99.90;;;;;;5054827;28;20434;-86
2022/11/29 01:56:49;;;;;;;159.20;34.92;;;10.20;99.90;;;;;;5053484;28;20125;-86
2022/11/29 01:59:19;;;;;;;202.63;36.47;;;10.20;99.90;;;;;;5054493;28;20070;-86
2022/11/29 02:01:45;;;;;;;212.87;37.80;;;10.20;99.90;;;;;;5036926;28;20029;-86
2022/11/29 02:04:11;;;;;;;155.25;34.15;;;10.20;99.90;;;;;;5037088;28;20160;-85
2022/11/29 02:06:38;;;;;;;170.55;34.33;;;10.20;99.90;;;;;;5019392;28;20170;-84
2022/11/29 02:09:15;;;;;;;172.98;36.25;;;10.20;99.90;;;;;;5054176;28;20029;-84
2022/11/29 02:12:07;;;;;;;171.25;33.45;;;10.20;99.90;;;;;;5036453;28;20021;-84
2022/11/29 02:14:42;;;;;;;183.32;35.75;;;10.20;99.90;;;;;;5036178;28;20029;-84
2022/11/29 02:17:28;;;;;;;189.40;35.13;;;10.20;99.90;;;;;;5036161;28;20033;-84
2022/11/29 02:20:00;;;;;;;162.68;33.50;;;10.20;99.90;;;;;;5036391;28;20071;-83
2022/11/29 02:22:36;;;;;;;202.05;35.00;;;10.20;99.90;;;;;;5036529;28;20029;-83
2022/11/29 02:25:14;;;;;;;178.02;34.55;;;10.20;99.90;;;;;;5035902;28;20020;-83
2022/11/29 02:28:11;;;;;;;178.30;37.90;;;10.20;99.90;;;;;;5053852;28;20041;-83
2022/11/29 02:31:07;;;;;;;178.20;36.33;;;10.20;99.90;;;;;;5053842;28;20386;-83
2022/11/29 02:34:18;;;;;;;160.82;35.33;;;10.20;99.90;;;;;;5035894;28;20099;-82
2022/11/29 02:37:02;;;;;;;152.00;34.10;;;10.20;99.90;;;;;;4985029;28;20037;-84
2022/11/29 02:39:28;;;;;;;178.98;36.38;;;10.20;99.90;;;;;;5035874;28;20057;-84
2022/11/29 02:42:09;;;;;;;168.25;34.53;;;10.20;99.90;;;;;;5035719;28;20032;-85
2022/11/29 02:44:46;;;;;;;156.90;35.00;;;10.20;99.90;;;;;;5035912;28;20027;-85
2022/11/29 02:47:36;;;;;;;175.93;35.05;;;10.20;99.90;;;;;;5035789;28;20433;-84
2022/11/29 02:50:39;;;;;;;158.27;36.45;;;10.20;99.90;;;;;;5054266;28;20025;-84
2022/11/29 02:53:14;;;;;;;173.35;37.60;;;10.10;99.90;;;;;;5035655;28;20033;-83
2022/11/29 02:55:54;;;;;;;157.82;34.88;;;10.20;99.90;;;;;;5036045;28;20021;-83
2022/11/29 02:58:36;;;;;;;163.43;34.83;;;10.10;99.90;;;;;;5035575;28;20056;-82
2022/11/29 03:01:24;;;;;;;160.80;33.63;;;10.10;99.90;;;;;;5053325;28;20438;-83
2022/11/29 03:03:53;;;;;;;146.68;33.15;;;10.10;99.90;;;;;;5035483;28;20028;-83
2022/11/29 03:06:45;;;;;;;152.35;33.58;;;10.20;99.90;;;;;;5035421;28;20029;-83
2022/11/29 03:09:10;;;;;;;182.05;35.08;;;10.10;99.90;;;;;;5053350;28;20108;-82
2022/11/29 03:12:01;;;;;;;182.85;34.58;;;10.10;99.90;;;;;;5053953;28;20421;-86
2022/11/29 03:14:46;;;;;;;165.65;34.78;;;10.20;99.90;;;;;;5036315;28;20025;-86
2022/11/29 03:17:47;;;;;;;148.23;34.72;;;10.20;99.90;;;;;;5038164;28;20112;-86
2022/11/29 03:20:27;;;;;;;216.93;39.05;;;10.10;99.90;;;;;;5059362;28;20021;-86
2022/11/29 03:22:56;;;;;;;177.85;35.60;;;10.10;99.90;;;;;;5041186;28;20036;-86
2022/11/29 03:25:32;;;;;;;170.30;33.85;;;10.10;99.90;;;;;;5058772;28;20029;-86
2022/11/29 03:28:11;;;;;;;182.20;35.53;;;10.20;99.90;;;;;;5039028;28;20032;-83
2022/11/29 03:30:41;;;;;;;184.13;36.30;;;10.10;99.90;;;;;;5039235;28;20025;-83
2022/11/29 03:33:16;;;;;;;165.13;35.40;;;10.20;99.90;;;;;;5039228;28;20032;-83
2022/11/29 03:36:20;;;;;;;171.65;36.45;;;10.20;99.90;;;;;;5039227;28;20497;-83
2022/11/29 03:38:47;;;;;;;179.80;37.17;;;10.10;99.90;;;;;;5039083;28;20485;-83
2022/11/29 03:41:45;;;;;;;186.35;37.67;;;10.10;99.90;;;;;;5039168;28;20033;-82
2022/11/29 03:44:16;;;;;;;178.48;35.17;;;10.10;99.90;;;;;;5039128;28;20017;-85
2022/11/29 03:46:53;;;;;;;;;;;10.20;99.90;;;;;;5039606;28;20036;-85
2022/11/29 03:49:29;;;;;;;188.55;37.33;;;10.10;99.90;;;;;;5056822;28;19905;-84
2022/11/29 03:52:03;;;;;;;204.77;37.10;;;10.10;99.90;;;;;;5038816;28;20035;-85
2022/11/29 03:54:45;;;;;;;202.90;37.75;;;10.10;99.90;;;;;;5038893;28;20359;-85
2022/11/29 03:57:16;;;;;;;159.93;33.35;;;10.10;99.90;;;;;;5057164;28;20029;-85
2022/11/29 04:00:03;;;;;;;147.05;34.72;;;10.10;99.90;;;;;;5056767;28;20108;-83
2022/11/29 04:02:44;;;;;;;177.38;37.85;;;10.10;99.90;;;;;;5056712;28;20037;-83
2022/11/29 04:05:41;;;;;;;160.20;35.70;;;10.10;99.90;;;;;;5056698;28;20020;-83
2022/11/29 04:08:40;;;;;;;174.05;36.33;;;10.10;99.90;;;;;;5056439;28;20483;-83
2022/11/29 04:11:18;;;;;;;164.13;33.53;;;10.10;99.90;;;;;;5038477;28;20037;-83
2022/11/29 04:14:02;;;;;;;174.85;33.90;;;10.10;99.90;;;;;;5056293;28;20032;-83
2022/11/29 04:16:52;;;;;;;176.05;34.78;;;10.10;99.90;;;;;;5038496;28;20144;-84
2022/11/29 04:19:55;;;;;;;176.23;35.87;;;10.10;99.90;;;;;;5038713;28;20025;-84
2022/11/29 04:22:57;;;;;;;168.02;35.15;;;10.10;99.90;;;;;;5038263;28;20033;-84
2022/11/29 04:26:02;;;;;;;148.68;31.45;;;10.10;99.90;;;;;;5040522;28;20041;-84
2022/11/29 04:28:49;;;;;;;153.70;33.78;;;10.10;99.90;;;;;;5042587;28;20063;-84
2022/11/29 04:31:36;;;;;;;172.38;34.78;;;10.10;99.90;;;;;;5038068;28;20429;-85
2022/11/29 04:34:13;;;;;;;218.40;36.33;;;10.10;99.90;;;;;;5038573;28;20040;-82
2022/11/29 04:37:00;;;;;;;169.35;35.90;;;10.10;99.90;;;;;;5038200;28;20021;-83
2022/11/29 04:39:46;;;;;;;212.13;38.28;;;10.10;99.90;;;;;;5038078;28;20393;-83
2022/11/29 04:42:24;;;;;;;189.23;37.22;;;10.10;99.90;;;;;;5037896;28;20024;-83
2022/11/29 04:44:57;;;;;;;196.88;34.65;;;10.10;99.90;;;;;;5037907;28;20078;-83
2022/11/29 04:47:41;;;;;;;203.93;33.92;;;10.10;99.90;;;;;;5037857;28;20126;-82
2022/11/29 04:50:48;;;;;;;211.93;35.78;;;10.10;99.90;;;;;;5037896;28;20377;-84
2022/11/29 04:53:28;;;;;;;192.32;34.88;;;10.10;99.90;;;;;;4958657;28;20085;-85
2022/11/29 04:56:18;;;;;;;192.80;34.80;;;10.10;99.90;;;;;;5046958;28;20470;-84
2022/11/29 04:59:14;;;;;;;172.40;34.45;;;10.10;99.90;;;;;;5055135;28;20778;-84
2022/11/29 05:01:48;;;;;;;157.02;33.58;;;10.10;99.90;;;;;;5037417;28;20474;-84
2022/11/29 05:04:45;;;;;;;183.57;33.80;;;10.10;99.90;;;;;;5055491;28;20025;-84
2022/11/29 05:07:30;;;;;;;179.73;32.92;;;10.10;99.90;;;;;;5055492;28;20048;-84
2022/11/29 05:10:17;;;;;;;171.82;34.83;;;10.10;99.90;;;;;;5055327;28;20384;-84
2022/11/29 05:13:26;;;;;;;202.02;35.47;;;10.10;99.90;;;;;;5055195;28;20104;-84
2022/11/29 05:16:14;;;;;;;215.05;33.75;;;10.10;99.90;;;;;;5037486;28;20047;-84
2022/11/29 05:19:18;;;;;;;262.60;37.75;;;10.10;99.90;;;;;;5037465;28;20033;-84
2022/11/29 05:21:55;;;;;;;184.15;35.17;;;10.10;99.90;;;;;;5052526;28;20371;-84
2022/11/29 05:24:33;;;;;;;156.43;31.35;;;10.10;99.90;;;;;;5037301;28;20044;-84
2022/11/29 05:27:08;;;;;;;168.25;34.22;;;10.10;99.90;;;;;;5037127;28;20041;-84
2022/11/29 05:29:52;;;;;;;169.25;32.88;;;10.10;99.90;;;;;;5052387;28;20685;-84
2022/11/29 05:32:48;;;;;;;149.63;31.52;;;10.10;99.90;;;;;;5017364;28;20017;-84
2022/11/29 05:35:46;;;;;;;148.43;32.55;;;10.10;99.90;;;;;;5017310;28;20025;-84
2022/11/29 05:38:33;;;;;;;206.88;35.25;;;10.10;99.90;;;;;;5034963;28;20032;-84
2022/11/29 05:41:31;;;;;;;193.60;34.05;;;10.10;99.90;;;;;;5019920;28;20025;-82
2022/11/29 05:44:12;;;;;;;171.88;33.67;;;10.10;99.90;;;;;;5058583;28;20048;-82
2022/11/29 05:46:56;;;;;;;207.13;34.42;;;10.00;99.90;;;;;;5062478;28;20089;-85
2022/11/29 05:49:36;;;;;;;160.98;30.35;;;10.10;99.90;;;;;;5067233;28;20510;-84
2022/11/29 05:52:26;;;;;;;191.75;34.60;;;10.00;99.90;;;;;;5030742;28;20429;-84
2022/11/29 05:55:30;;;;;;;163.23;32.08;;;10.10;99.90;;;;;;5024567;28;20063;-82
2022/11/29 05:58:22;;;;;;;191.85;33.35;;;10.00;99.90;;;;;;5037787;28;20068;-83
2022/11/29 06:01:03;;;;;;;158.70;31.20;;;10.00;99.90;;;;;;5054090;28;20029;-83
2022/11/29 06:04:09;;;;;;;179.38;32.55;;;10.00;99.90;;;;;;5053123;28;20032;-83
2022/11/29 06:06:48;;;;;;;167.52;33.17;;;10.00;99.90;;;;;;4985597;28;20033;-87
2022/11/29 06:09:29;;;;;;;201.23;34.90;;;10.00;99.90;;;;;;5016621;28;20025;-87
2022/11/29 06:12:04;;;;;;;215.52;34.88;;;10.00;99.90;;;;;;5017074;28;20021;-87
2022/11/29 06:14:59;;;;;;;173.25;32.67;;;10.00;99.90;;;;;;5015543;28;20486;-85
2022/11/29 06:17:28;;;;;;;256.00;37.15;;;10.00;99.90;;;;;;5015668;28;20394;-85
2022/11/29 06:20:25;;;;;;;191.40;34.22;;;10.00;99.90;;;;;;5033452;28;20025;-85
2022/11/29 06:23:18;;;;;;;203.07;34.53;;;10.00;99.90;;;;;;5015755;28;20054;-85
2022/11/29 06:25:59;;;;;;;218.38;34.63;;;10.00;99.90;;;;;;5034226;28;20064;-85
2022/11/29 06:28:46;;;;;;;176.38;32.03;;;10.00;99.90;;;;;;4994949;28;20035;-85
2022/11/29 06:31:27;;;;;;;185.98;35.47;;;10.00;99.90;;;;;;4994829;28;20049;-85
2022/11/29 06:34:10;;;;;;;238.50;35.42;;;10.00;99.90;;;;;;4993507;28;20022;-85
2022/11/29 06:36:52;;;;;;;214.48;36.47;;;9.90;99.90;;;;;;4993199;28;20429;-85
2022/11/29 06:39:18;;;;;;;169.13;35.35;;;9.90;99.90;;;;;;5019268;23;20526;-86
2022/11/29 06:41:44;;;;;;;192.10;36.47;;;9.90;99.90;;;;;;5016165;28;20144;-85
2022/11/29 06:44:10;;;;;;;219.10;39.15;;;9.90;99.90;;;;;;5016008;28;20072;-85
2022/11/29 06:46:44;;;;;;;211.00;37.80;;;10.00;99.90;;;;;;5031795;28;20036;-85
2022/11/29 06:49:55;;;;;;;180.15;35.60;;;9.90;99.90;;;;;;5031856;28;20033;-85
2022/11/29 06:52:32;;;;;;;183.40;33.03;;;9.90;99.90;;;;;;4972082;28;20041;-85
2022/11/29 06:55:16;;;;;;;185.50;35.53;;;9.90;99.90;;;;;;4958595;28;20623;-85
2022/11/29 06:58:07;;;;;;;188.38;34.83;;;9.90;99.90;;;;;;5008548;28;20044;-85
2022/11/29 07:00:58;;;;;;;208.45;36.33;;;9.90;99.90;;;;;;5029998;28;20036;-85
2022/11/29 07:03:42;;;;;;;217.18;35.50;;;9.90;99.90;;;;;;5033048;28;20141;-85
2022/11/29 07:06:19;;;;;;;201.90;34.75;;;9.90;99.90;;;;;;5032150;28;20091;-85
2022/11/29 07:08:48;;;;;;;167.50;32.92;;;9.90;99.90;;;;;;5032430;28;20025;-85
2022/11/29 07:11:15;;;;;;;191.13;32.80;;;9.90;99.90;;;;;;5032747;28;20034;-85
2022/11/29 07:13:44;;;;;;;183.95;34.08;;;9.80;99.90;;;;;;5032473;28;20028;-84
2022/11/29 07:16:27;;;;;;;189.32;33.97;;;9.90;99.90;;;;;;5033723;28;20034;-85
2022/11/29 07:18:59;;;;;;;217.07;35.47;;;9.90;99.90;;;;;;5032654;28;20017;-85
2022/11/29 07:22:01;;;;;;;207.02;37.38;;;9.90;99.90;;;;;;5033971;28;20030;-85
2022/11/29 07:24:55;;;;;;;186.00;34.60;;;9.90;99.90;;;;;;5032060;28;20041;-84
2022/11/29 07:28:15;;;;;;;186.18;33.83;;;9.80;99.90;;;;;;5032269;28;20022;-86
2022/11/29 07:30:56;;;;;;;193.65;35.35;;;9.90;99.90;;;;;;4955450;28;20027;-85
2022/11/29 07:33:40;;;;;;;138.00;30.58;;;9.80;99.90;;;;;;4955923;28;20053;-83
2022/11/29 07:36:19;;;;;;;162.73;32.25;;;9.80;99.90;;;;;;5020401;28;20037;-85
2022/11/29 07:39:09;;;;;;;132.52;29.60;;;9.90;99.90;;;;;;5031841;28;20061;-84
2022/11/29 07:41:45;;;;;;;149.57;28.85;;;9.90;99.90;;;;;;5030725;28;20053;-84
2022/11/29 07:44:45;;;;;;;140.95;30.17;;;9.80;99.90;;;;;;5027466;28;20037;-88
2022/11/29 07:47:11;;;;;;;168.32;32.00;;;9.80;99.90;;;;;;4999093;28;20036;-84
2022/11/29 07:49:36;;;;;;;154.88;31.77;;;9.80;99.90;;;;;;5032146;28;20034;-85
2022/11/29 07:52:02;;;;;;;162.40;32.25;;;9.80;99.90;;;;;;5011507;28;20425;-85
2022/11/29 07:54:28;;;;;;;167.80;31.77;;;9.80;99.90;;;;;;5011495;28;20022;-85
2022/11/29 07:56:54;;;;;;;144.93;32.28;;;9.80;99.90;;;;;;5011837;28;20030;-85
2022/11/29 07:59:20;;;;;;;158.77;33.28;;;9.80;99.90;;;;;;4995001;28;20084;-86
2022/11/29 08:01:53;;;;;;;159.60;32.13;;;9.80;99.90;;;;;;5029431;28;20732;-85
2022/11/29 08:04:18;;;;;;;216.30;33.30;;;9.80;99.90;;;;;;5029312;28;20085;-85
2022/11/29 08:06:44;;;;;;;133.88;28.67;;;9.80;99.90;;;;;;5034339;28;20101;-83
2022/11/29 08:09:12;;;;;;;127.22;28.58;;;9.80;99.90;;;;;;5035359;28;20108;-84
2022/11/29 08:11:43;;;;;;;138.32;28.30;;;9.80;99.90;;;;;;5033603;28;20026;-83
2022/11/29 08:14:09;;;;;;;158.52;29.35;;;9.80;99.90;;;;;;5033863;28;20457;-84
2022/11/29 08:16:35;;;;;;;112.10;25.70;;;9.80;99.90;;;;;;5017214;28;20072;-85
2022/11/29 08:19:01;;;;;;;129.70;28.52;;;9.80;99.90;;;;;;5034039;28;20049;-84
2022/11/29 08:21:26;;;;;;;140.05;28.50;;;9.80;99.90;;;;;;5031982;28;20033;-86
2022/11/29 08:23:54;;;;;;;122.45;28.13;;;9.80;99.90;;;;;;5035348;28;20025;-84
2022/11/29 08:26:23;;;;;;;125.13;26.58;;;9.80;99.90;;;;;;5016469;28;20049;-84
2022/11/29 08:28:52;;;;;;;121.05;26.02;;;9.80;99.90;;;;;;5033665;28;20022;-84
2022/11/29 08:31:21;;;;;;;121.65;27.45;;;9.80;99.90;;;;;;5015857;28;20032;-83
2022/11/29 08:33:47;;;;;;;109.35;26.13;;;9.80;99.90;;;;;;5016703;28;20053;-84
2022/11/29 08:36:18;;;;;;;128.25;26.88;;;9.80;99.90;;;;;;5032744;28;20387;-84
2022/11/29 08:38:44;;;;;;;115.00;25.50;;;9.80;99.90;;;;;;5033557;28;20018;-85
2022/11/29 08:41:12;;;;;;;125.07;27.08;;;9.80;99.90;;;;;;5016219;28;20475;-85
2022/11/29 08:43:38;;;;;;;143.48;29.33;;;9.80;99.90;;;;;;5033341;28;20109;-85
2022/11/29 08:46:04;;;;;;;116.18;26.63;;;9.80;99.90;;;;;;5034625;28;20080;-85
2022/11/29 08:48:30;;;;;;;122.25;26.83;;;9.80;99.90;;;;;;5017102;28;20060;-85
2022/11/29 08:50:56;;;;;;;106.13;24.60;;;9.70;99.90;;;;;;5033066;28;20037;-84
2022/11/29 08:53:41;;;;;;;130.07;26.52;;;9.70;99.90;;;;;;5033218;28;20025;-84
2022/11/29 08:56:12;;;;;;;160.63;27.95;;;9.70;99.90;;;;;;5002237;28;20025;-85
2022/11/29 08:58:39;;;;;;;115.15;25.25;;;9.70;99.90;;;;;;5029912;28;20029;-85
2022/11/29 09:01:12;;;;;;;108.82;25.33;;;9.70;99.90;;;;;;5032822;28;20034;-85
2022/11/29 09:06:21;;;;;;;128.60;25.95;;;9.70;99.90;;;;;;5034542;28;20508;-84
2022/11/29 09:08:47;;;;;;;130.27;26.67;;;9.70;99.90;;;;;;5016267;28;20033;-84
2022/11/29 09:11:18;;;;;;;144.07;26.92;;;9.70;99.90;;;;;;5031525;28;20018;-84
2022/11/29 09:13:47;;;;;;;124.65;26.10;;;9.70;99.90;;;;;;5036167;28;20025;-86
2022/11/29 09:16:18;;;;;;;108.07;24.52;;;9.70;99.90;;;;;;5025448;28;20369;-84
2022/11/29 09:18:45;;;;;;;135.75;26.55;;;9.70;99.90;;;;;;5012765;28;20474;-84
2022/11/29 09:21:12;;;;;;;124.30;25.42;;;9.70;99.90;;;;;;5031905;28;20036;-85
2022/11/29 09:23:40;;;;;;;108.53;22.90;;;9.80;99.90;;;;;;5015939;28;20026;-84
2022/11/29 09:26:09;;;;;;;103.82;24.45;;;9.80;99.90;;;;;;5032543;28;20033;-84
2022/11/29 09:28:38;;;;;;;97.72;23.77;;;9.80;99.90;;;;;;5013008;28;20117;-84
2022/11/29 09:31:13;;;;;;;116.68;24.10;;;9.80;99.90;;;;;;5031882;28;20032;-84
2022/11/29 09:33:39;;;;;;;132.38;25.40;;;9.80;99.90;;;;;;5032722;28;20025;-84
2022/11/29 09:36:07;;;;;;;105.78;24.20;;;9.80;99.90;;;;;;5032708;28;20038;-85
2022/11/29 09:38:33;;;;;;;104.63;23.10;;;9.80;99.90;;;;;;5031980;28;20029;-85
2022/11/29 09:41:10;;;;;;;107.07;22.38;;;9.70;99.90;;;;;;5031785;28;20478;-85
2022/11/29 09:43:51;;;;;;;124.57;23.33;;;9.70;99.90;;;;;;5031668;28;20036;-85
2022/11/29 09:46:26;;;;;;;101.38;21.50;;;9.80;99.90;;;;;;5033223;28;20075;-85
2022/11/29 09:49:13;;;;;;;106.82;22.42;;;9.80;99.90;;;;;;5032114;28;20537;-86
2022/11/29 09:51:56;;;;;;;76.85;19.20;;;9.80;99.90;;;;;;5031741;28;20025;-85
2022/11/29 09:54:52;;;;;;;83.75;20.75;;;9.80;99.90;;;;;;5033769;28;20105;-84
2022/11/29 09:57:20;;;;;;;87.03;18.80;;;9.80;99.90;;;;;;5032210;28;20385;-85
2022/11/29 09:59:51;;;;;;;96.20;21.17;;;9.80;99.90;;;;;;5033341;28;20044;-84
2022/11/29 10:02:24;;;;;;;80.68;19.20;;;9.80;99.90;;;;;;5032984;28;20079;-84
2022/11/29 10:04:57;;;;;;;71.80;18.95;;;9.80;99.90;;;;;;5032051;28;20385;-84
2022/11/29 10:07:38;;;;;;;66.43;17.83;;;9.80;99.90;;;;;;5034024;28;20033;-84
2022/11/29 10:10:27;;;;;;;85.87;20.03;;;9.80;99.90;;;;;;5033980;28;20026;-85
2022/11/29 10:13:43;;;;;;;68.78;17.40;;;9.80;99.90;;;;;;5031704;28;20095;-84
2022/11/29 10:16:24;;;;;;;73.75;18.58;;;9.90;99.90;;;;;;5027716;28;20036;-87
2022/11/29 10:19:11;;;;;;;89.93;21.30;;;9.90;99.90;;;;;;5032592;28;20033;-86
2022/11/29 10:21:42;;;;;;;90.85;18.27;;;9.90;99.90;;;;;;5029974;28;20393;-84
2022/11/29 10:24:13;;;;;;;79.75;19.45;;;9.90;99.90;;;;;;5032421;28;20025;-84
2022/11/29 10:26:39;;;;;;;;;;;9.90;99.90;;;;;;5033184;28;20497;-84
2022/11/29 10:29:05;;;;;;;84.72;18.00;;;9.90;99.90;;;;;;5033473;28;19913;-84
2022/11/29 10:31:34;;;;;;;95.70;21.00;;;9.90;99.90;;;;;;5014851;28;20033;-84
2022/11/29 10:34:18;;;;;;;86.03;20.40;;;9.90;99.90;;;;;;5032779;28;20029;-85
2022/11/29 10:37:01;;;;;;;75.10;18.58;;;10.00;99.90;;;;;;5028551;28;20021;-85
2022/11/29 10:39:41;;;;;;;78.72;20.23;;;10.00;99.90;;;;;;5026208;28;20032;-85
2022/11/29 10:42:47;;;;;;;84.80;19.95;;;10.00;99.90;;;;;;5029788;28;20482;-84
2022/11/29 10:45:01;;;;;;;69.93;19.00;;;10.00;99.90;;;;;;5032722;28;20123;-85
2022/11/29 10:47:30;;;;;;;75.00;18.92;;;10.00;99.90;;;;;;5031541;28;20036;-86
2022/11/29 10:49:56;;;;;;;99.65;21.90;;;10.00;99.90;;;;;;5033022;28;20367;-87
2022/11/29 10:52:23;;;;;;;82.60;20.65;;;10.00;99.90;;;;;;5030391;28;20091;-85
2022/11/29 10:54:52;;;;;;;78.07;21.17;;;10.00;99.90;;;;;;5020801;28;20124;-86
2022/11/29 10:57:20;;;;;;;79.75;21.35;;;10.00;99.90;;;;;;5038816;28;20064;-86
2022/11/29 11:00:10;;;;;;;94.95;21.67;;;10.00;99.90;;;;;;5038576;28;20033;-86
2022/11/29 11:02:39;;;;;;;75.78;20.17;;;10.00;99.90;;;;;;5035518;28;20033;-85
2022/11/29 11:05:17;;;;;;;81.45;21.60;;;10.10;99.90;;;;;;5020172;28;20035;-87
2022/11/29 11:07:42;;;;;;;76.30;20.40;;;10.10;99.90;;;;;;5036585;28;20021;-86
2022/11/29 11:10:26;;;;;;;92.97;22.65;;;10.10;99.90;;;;;;5033152;28;20021;-86
2022/11/29 11:13:17;;;;;;;91.63;22.15;;;10.10;99.90;;;;;;5033629;28;20071;-86
2022/11/29 11:15:43;;;;;;;79.53;20.80;;;10.10;99.90;;;;;;5038450;28;20354;-85
2022/11/29 11:18:20;;;;;;;95.57;22.75;;;10.10;99.90;;;;;;5037607;28;20100;-85
2022/11/29 11:20:52;;;;;;;80.63;21.83;;;10.10;99.90;;;;;;5033941;28;20469;-84
2022/11/29 11:23:30;;;;;;;85.40;22.58;;;10.10;99.90;;;;;;5035429;28;20034;-85
2022/11/29 11:26:08;;;;;;;78.95;20.30;;;10.10;99.90;;;;;;5039870;28;20022;-86
2022/11/29 11:28:47;;;;;;;66.03;19.35;;;10.10;99.90;;;;;;5038674;28;20373;-86
2022/11/29 11:31:13;;;;;;;74.05;18.98;;;10.20;99.90;;;;;;5035667;28;20025;-86
2022/11/29 11:33:44;;;;;;;64.55;19.42;;;10.10;99.90;;;;;;5032999;28;20036;-87
2022/11/29 11:36:19;;;;;;;71.57;20.55;;;10.20;99.90;;;;;;5033672;28;20048;-87
2022/11/29 11:39:09;;;;;;;67.18;19.80;;;10.20;99.90;;;;;;5036629;28;20029;-86
2022/11/29 11:44:34;;;;;;;55.60;17.88;;;10.20;99.90;;;;;;5050311;28;20236;-84
2022/11/29 11:47:01;;;;;;;65.50;19.33;;;10.20;99.90;;;;;;5037012;28;20516;-84
2022/11/29 11:49:34;;;;;;;64.40;18.42;;;10.20;99.90;;;;;;5021678;28;20025;-84
2022/11/29 11:52:02;;;;;;;62.28;18.50;;;10.20;99.90;;;;;;5034353;28;20488;-84
2022/11/29 11:54:30;;;;;;;72.65;19.13;;;10.20;99.90;;;;;;5035816;28;20081;-85
2022/11/29 11:57:14;;;;;;;65.25;19.17;;;10.20;99.90;;;;;;5018308;28;20479;-84
2022/11/29 11:59:48;;;;;;;65.13;19.63;;;10.20;99.90;;;;;;5035049;28;20469;-84
2022/11/29 12:02:38;;;;;;;62.13;20.23;;;10.20;99.90;;;;;;5032143;28;20026;-83
2022/11/29 12:05:15;;;;;;;65.32;19.83;;;10.30;99.90;;;;;;5036922;28;20473;-84
2022/11/29 12:07:49;;;;;;;69.63;19.95;;;10.30;99.90;;;;;;5034506;28;20022;-82
2022/11/29 12:10:21;;;;;;;62.20;19.25;;;10.30;99.90;;;;;;5034204;28;20025;-85
2022/11/29 12:12:49;;;;;;;55.92;19.08;;;10.30;99.90;;;;;;5031721;28;20029;-86
2022/11/29 12:15:20;;;;;;;72.85;19.90;;;10.20;99.90;;;;;;5032882;28;20024;-83
2022/11/29 12:18:23;;;;;;;71.38;20.48;;;10.20;99.90;;;;;;5034218;28;20018;-85
2022/11/29 12:21:13;;;;;;;58.17;19.13;;;10.30;99.90;;;;;;4999883;28;20091;-86
2022/11/29 12:23:48;;;;;;;62.90;19.10;;;10.30;99.90;;;;;;5019463;28;20112;-85
2022/11/29 12:26:24;;;;;;;56.63;18.33;;;10.30;99.90;;;;;;5036326;28;20021;-84
2022/11/29 12:28:50;;;;;;;56.42;19.08;;;10.30;99.90;;;;;;5038491;28;20061;-86
2022/11/29 12:31:37;;;;;;;62.38;18.63;;;10.30;99.90;;;;;;5032695;28;20049;-84
2022/11/29 12:34:21;;;;;;;58.47;19.00;;;10.30;99.90;;;;;;5031468;28;20028;-86
2022/11/29 12:36:56;;;;;;;54.70;19.35;;;10.30;99.90;;;;;;5031891;28;20021;-84
2022/11/29 12:39:34;;;;;;;56.88;18.52;;;10.40;99.90;;;;;;5033464;28;20107;-87
2022/11/29 12:42:25;;;;;;;65.10;20.85;;;10.40;99.90;;;;;;5032317;28;20050;-85
2022/11/29 12:44:56;;;;;;;;;;;10.40;99.90;;;;;;5032299;28;20068;-85
2022/11/29 12:47:28;;;;;;;65.40;20.10;;;10.40;99.90;;;;;;5040577;28;19905;-85
2022/11/29 12:50:03;;;;;;;69.35;21.35;;;10.40;99.90;;;;;;5033166;28;20099;-84
2022/11/29 12:52:35;;;;;;;62.88;21.00;;;10.40;99.90;;;;;;5033204;28;20030;-85
2022/11/29 12:55:07;;;;;;;63.88;20.70;;;10.40;99.90;;;;;;5034024;28;20067;-84
2022/11/29 12:57:38;;;;;;;69.05;21.63;;;10.40;99.90;;;;;;5033847;28;20393;-84
2022/11/29 13:00:16;;;;;;;48.88;18.48;;;10.50;99.90;;;;;;5033229;28;20458;-84
2022/11/29 13:02:54;;;;;;;62.00;20.60;;;10.50;99.90;;;;;;5031749;28;20053;-84
2022/11/29 13:05:28;;;;;;;71.63;21.55;;;10.50;99.90;;;;;;5033440;28;20025;-84
2022/11/29 13:07:54;;;;;;;80.85;22.48;;;10.50;99.90;;;;;;5034467;28;20044;-85
2022/11/29 13:10:41;;;;;;;69.30;21.73;;;10.50;99.90;;;;;;5031620;28;20195;-85
2022/11/29 13:13:28;;;;;;;56.53;20.75;;;10.50;99.90;;;;;;5030620;28;20029;-84
2022/11/29 13:16:01;;;;;;;60.53;20.10;;;10.50;99.90;;;;;;5033749;28;20374;-85
2022/11/29 13:18:33;;;;;;;75.60;22.98;;;10.50;99.90;;;;;;5033810;28;20076;-84
2022/11/29 13:21:12;;;;;;;80.50;23.10;;;10.50;99.90;;;;;;5031716;28;20449;-84